Killington, VT

11:45 AM EDT on March 27, 2017 (GMT -0400)
Fiore Property Services | | Change Station

Elev 1768 ft 43.65 °N, 72.79 °W | Updated 8 seconds ago

Overcast
Overcast
33.6 °F
Feels Like 31 °F
N
3.4
Wind Variable Wind from NNW
Gusts 4.9 mph

Today
High -- | Low -- °F
--% Chance of Precip.
Yesterday
High -- | Low -- °F
Precip. -- in
Pressure 30.13 in
Visibility 10.0 miles
Clouds Mostly Cloudy 2800 ft
Overcast 3800 ft
Windchill 31 °F
Dew Point 28 °F
Humidity 80%
Rainfall 0.00 in
Snow Depth Not available.
6:41 AM 7:12 PM
Waning Crescent, 0% visible
METAR KRUT 271456Z AUTO 12019G25KT 10SM -RA BKN028 OVC038 02/00 A3006 RMK AO2 UPB13E26 SLP201 P0000 60004 T00220000 56010 FZRANO $
Pressure 30.13 in
Visibility 10.0 miles
Clouds Mostly Cloudy 2800 ft
Overcast 3800 ft
Windchill 31 °F
Dew Point 28 °F
Humidity 80%
Rainfall 0.00 in
Snow Depth Not available.
6:41 AM 7:12 PM
Waning Crescent, 0% visible
METAR KRUT 271456Z AUTO 12019G25KT 10SM -RA BKN028 OVC038 02/00 A3006 RMK AO2 UPB13E26 SLP201 P0000 60004 T00220000 56010 FZRANO $

Get Severe Weather Alerts

Thanks for signing up!

Be on the lookout for a verification email in your inbox.

You'll start receiving the daily forecast at 8 AM.

×

10-Day Weather Forecast

Almanac

Astronomy

Mar. 27, 2017 Rise Set
Actual Time
Civil Twilight
Nautical Twilight
Astronomical Twilight
Moon
Length of Visible Light
Length of Day
Tomorrow will be .
, % of the Moon is Illuminated

Today's Extremes

State Highs State Lows

Community

WunderPhotos

Upload Photos

1,962,540 photos uploaded!

WunderBlog® & News

Nearby

Air Quality

  Air Quality AQ Index Pollutant
Not available.

Snow Depth

Station Depth Elevation

Earthquake Activity

City Distance Mag. Time & Date
Minimum magnitude displayed is 2.5.

Earthquake Activity

City Distance Mag. Time & Date
Minimum magnitude displayed is 2.5.

Coastal Water Temperatures

Place Temperature

Stations

Nearby Weather Stations

Station Location Temp. Windchill Dew Point Humidity Wind Precip. Elev Updated Type
                   

Watches & Warnings

There are currently no watches in effect.